Main page
METAR-TAF:

METAR-TAF

Airports :

Wattisham Flying Station

Wattisham, England

latitude: 52-07N, longitude: 000-58E, elevation: 87 m

Current weather observation

The report was made 37 minutes ago, at 03:50 UTC
Wind 1 kt from the South
Temperature 9°C
Humidity 100%
Pressure 1015 hPa
Visibility: 6000 m

METAR: EGUW 210350Z AUTO 17001KT 6000 // BKN001/// 09/09 Q1015

Time: 05:27 (04:27 UTC)

Forecast

The report was made 8 hours and 41 minutes ago, at 19:46 UTC
Forecast valid from 20 at 21 UTC to 21 at 02 UTC
Wind 5 kt from the East
Visibility 10 km or more
no clouds below 1500 m and no cumulonimbus

TAF: EGUW 201946Z 2021/2102 10005KT CAVOK

Weather observations and forecasts of more than 4000 airports (METAR and TAF reports).

The available stations are represented by yellow and red dots on the map.

Hover mouse over dot to see the name of the station.

Then click to see weather observations and forecasts.

To change the map : click on the green buttons with a black cross to zoom in, on the green button with a dash to zoom out, or on the green arrows for adjacent maps.


METAR-TAF: